Time;durP1;ratioP1;P1;durP2;ratioP2;P2;SDS_P1;SDS_P2;PMS_P1;PMS_P2;Temp;Humidity;BMP_temperature;BMP_pressure;BME280_temperature;BME280_humidity;BME280_pressure;Samples;Min_cycle;Max_cycle;Signal;HPM_P1;HPM_P2
2021/07/07 00:00:23;;;;;;;19.85;18.15;;;34.00;35.80;;;;;;5050668;28;20035;-59
2021/07/07 00:02:49;;;;;;;20.98;19.17;;;34.00;35.90;;;;;;5050988;28;20021;-66
2021/07/07 00:05:17;;;;;;;20.80;18.83;;;34.00;35.90;;;;;;5050684;28;20060;-66
2021/07/07 00:07:44;;;;;;;18.90;17.30;;;34.00;35.90;;;;;;5032752;28;20071;-66
2021/07/07 00:10:13;;;;;;;19.38;17.77;;;34.00;35.90;;;;;;5050402;28;20483;-67
2021/07/07 00:12:40;;;;;;;20.10;18.30;;;34.00;36.00;;;;;;5050974;28;20468;-67
2021/07/07 00:15:10;;;;;;;20.40;18.63;;;34.00;36.00;;;;;;5050824;28;20065;-62
2021/07/07 00:17:37;;;;;;;19.67;17.92;;;34.00;36.00;;;;;;5050773;28;20532;-67
2021/07/07 00:20:06;;;;;;;20.30;18.65;;;34.00;36.00;;;;;;5050687;28;20025;-68
2021/07/07 00:23:06;;;;;;;20.10;18.48;;;34.00;36.10;;;;;;5050244;28;20096;-67
2021/07/07 00:25:32;;;;;;;20.58;18.83;;;34.00;36.10;;;;;;5029553;28;20430;-68
2021/07/07 00:27:59;;;;;;;20.40;18.70;;;34.00;36.10;;;;;;5050354;28;20033;-67
2021/07/07 00:30:27;;;;;;;19.98;18.38;;;34.00;36.10;;;;;;5050454;28;20021;-68
2021/07/07 00:32:53;;;;;;;20.73;19.05;;;34.00;36.20;;;;;;5050035;28;20029;-66
2021/07/07 00:35:19;;;;;;;20.63;18.88;;;34.00;36.20;;;;;;5050661;28;20037;-59
2021/07/07 00:37:45;;;;;;;21.23;19.33;;;33.90;36.20;;;;;;5050463;28;20098;-68
2021/07/07 00:40:12;;;;;;;20.15;18.42;;;33.90;36.20;;;;;;5050656;28;20112;-68
2021/07/07 00:42:38;;;;;;;20.02;18.17;;;33.90;36.30;;;;;;5050814;28;20045;-67
2021/07/07 00:45:05;;;;;;;19.60;18.00;;;33.90;36.30;;;;;;5050474;28;20025;-67
2021/07/07 00:47:31;;;;;;;21.27;19.45;;;33.90;36.30;;;;;;5051759;28;20065;-67
2021/07/07 00:49:57;;;;;;;19.55;17.95;;;33.90;36.30;;;;;;5054143;28;20440;-67
2021/07/07 00:52:23;;;;;;;20.10;18.45;;;33.90;37.00;;;;;;5054427;28;20154;-66
2021/07/07 00:54:50;;;;;;;19.73;18.00;;;33.90;36.40;;;;;;5053686;28;20120;-65
2021/07/07 00:57:17;;;;;;;20.15;18.33;;;33.90;36.50;;;;;;5054273;28;20032;-66
2021/07/07 00:59:46;;;;;;;20.02;18.33;;;33.90;36.50;;;;;;5053766;28;20025;-65
2021/07/07 01:02:17;;;;;;;19.97;18.23;;;33.90;36.60;;;;;;5049322;28;20025;-66
2021/07/07 01:04:43;;;;;;;19.17;17.67;;;33.90;36.50;;;;;;5033854;28;20641;-67
2021/07/07 01:07:09;;;;;;;19.92;18.23;;;33.90;36.60;;;;;;5033940;28;20040;-67
2021/07/07 01:09:36;;;;;;;18.90;17.30;;;33.90;36.60;;;;;;5033290;28;20032;-67
2021/07/07 01:12:02;;;;;;;20.65;18.75;;;33.90;36.60;;;;;;5039000;28;20457;-67
2021/07/07 01:14:28;;;;;;;20.75;18.85;;;33.90;36.60;;;;;;5053529;28;20049;-67
2021/07/07 01:16:55;;;;;;;18.55;17.02;;;33.90;36.70;;;;;;5053578;28;20048;-67
2021/07/07 01:19:21;;;;;;;19.80;18.10;;;33.80;36.60;;;;;;5053848;28;20029;-66
2021/07/07 01:21:48;;;;;;;19.65;18.08;;;33.90;36.80;;;;;;5036037;28;20025;-67
2021/07/07 01:24:17;;;;;;;18.35;16.85;;;33.80;36.80;;;;;;5053645;28;20104;-67
2021/07/07 01:26:43;;;;;;;19.83;18.00;;;33.80;36.80;;;;;;5035496;28;20045;-67
2021/07/07 01:29:10;;;;;;;19.90;18.23;;;33.80;36.80;;;;;;5052784;28;20036;-66
2021/07/07 01:31:39;;;;;;;19.08;17.45;;;33.80;36.80;;;;;;5052976;28;20037;-67
2021/07/07 01:34:07;;;;;;;18.58;16.95;;;33.80;36.80;;;;;;5052378;28;20075;-67
2021/07/07 01:36:34;;;;;;;18.55;17.08;;;33.80;36.80;;;;;;5053144;28;20515;-67
2021/07/07 01:39:03;;;;;;;19.20;17.60;;;33.80;36.90;;;;;;5053072;28;20032;-66
2021/07/07 01:41:29;;;;;;;18.80;17.30;;;33.80;36.90;;;;;;5052941;28;20053;-66
2021/07/07 01:43:55;;;;;;;18.80;17.20;;;33.80;36.90;;;;;;5052804;28;20091;-67
2021/07/07 01:46:21;;;;;;;19.90;18.27;;;33.80;36.90;;;;;;5052791;28;20029;-68
2021/07/07 01:48:47;;;;;;;19.98;18.17;;;33.80;37.00;;;;;;5053270;28;20021;-67
2021/07/07 01:51:13;;;;;;;18.70;17.10;;;33.80;37.00;;;;;;5052899;28;20040;-64
2021/07/07 01:53:39;;;;;;;18.02;16.52;;;33.80;37.00;;;;;;5052949;28;20468;-68
2021/07/07 01:56:05;;;;;;;19.13;17.52;;;33.80;37.10;;;;;;5034863;28;20068;-68
2021/07/07 01:58:31;;;;;;;19.13;17.63;;;33.80;37.10;;;;;;5052760;28;20041;-65
2021/07/07 02:00:57;;;;;;;18.67;16.98;;;33.80;37.10;;;;;;5052280;28;20353;-67
2021/07/07 02:03:23;;;;;;;17.85;16.35;;;33.70;37.10;;;;;;5052462;28;20021;-68
2021/07/07 02:05:49;;;;;;;18.25;16.65;;;33.80;37.10;;;;;;5052358;28;20033;-65
2021/07/07 02:08:17;;;;;;;18.30;16.80;;;33.80;37.20;;;;;;5052557;28;20031;-66
2021/07/07 02:10:43;;;;;;;18.30;16.63;;;33.80;37.20;;;;;;5052515;28;20021;-66
2021/07/07 02:13:11;;;;;;;18.70;17.20;;;33.70;37.20;;;;;;5052429;28;20120;-66
2021/07/07 02:15:37;;;;;;;18.05;16.65;;;33.70;37.30;;;;;;5052396;28;20102;-67
2021/07/07 02:18:05;;;;;;;18.55;16.95;;;33.70;37.20;;;;;;5052419;28;20032;-68
2021/07/07 02:20:34;;;;;;;19.42;17.92;;;33.70;37.30;;;;;;5051652;28;20025;-67
2021/07/07 02:23:00;;;;;;;17.77;16.27;;;33.70;37.30;;;;;;5052393;28;20679;-66
2021/07/07 02:25:32;;;;;;;18.40;16.90;;;33.70;37.30;;;;;;5052384;28;20025;-65
2021/07/07 02:27:59;;;;;;;16.95;15.65;;;33.70;37.40;;;;;;5052043;28;20388;-66
2021/07/07 02:30:28;;;;;;;18.55;16.95;;;33.70;37.40;;;;;;5052492;28;20032;-60
2021/07/07 02:32:55;;;;;;;17.40;16.00;;;33.70;37.40;;;;;;5052388;28;20072;-66
2021/07/07 02:35:31;;;;;;;17.67;16.23;;;33.70;37.40;;;;;;5052138;28;20039;-66
2021/07/07 02:37:58;;;;;;;18.13;16.73;;;33.70;37.50;;;;;;5033874;28;20041;-66
2021/07/07 02:40:27;;;;;;;18.60;17.00;;;33.70;37.50;;;;;;5051913;28;20033;-66
2021/07/07 02:42:53;;;;;;;17.90;16.40;;;33.70;37.50;;;;;;5051961;28;20480;-67
2021/07/07 02:45:21;;;;;;;17.95;16.45;;;33.70;37.50;;;;;;5051740;28;20025;-67
2021/07/07 02:47:48;;;;;;;18.65;17.15;;;33.70;37.50;;;;;;5035504;28;20037;-66
2021/07/07 02:50:16;;;;;;;16.90;15.50;;;33.60;37.50;;;;;;5031626;28;20512;-67
2021/07/07 02:52:45;;;;;;;17.17;15.77;;;33.70;37.60;;;;;;5031697;28;20465;-66
2021/07/07 02:55:13;;;;;;;17.20;15.80;;;33.60;37.60;;;;;;5033617;28;20120;-67
2021/07/07 03:00:39;;;;;;;17.58;16.08;;;33.60;37.60;;;;;;5051670;28;20029;-67
2021/07/07 03:03:07;;;;;;;16.95;15.55;;;33.60;37.60;;;;;;5051486;28;20033;-67
2021/07/07 03:05:40;;;;;;;17.48;16.10;;;33.60;37.60;;;;;;5051320;28;20369;-66
2021/07/07 03:08:06;;;;;;;18.33;16.88;;;33.60;37.70;;;;;;5051558;28;20163;-66
2021/07/07 03:10:32;;;;;;;18.13;16.63;;;33.60;37.70;;;;;;5050689;28;20033;-66
2021/07/07 03:12:59;;;;;;;16.98;15.48;;;33.60;37.70;;;;;;5050740;28;20114;-63
2021/07/07 03:15:25;;;;;;;15.95;14.75;;;33.60;37.80;;;;;;5033815;28;20086;-67
2021/07/07 03:17:53;;;;;;;16.92;15.57;;;33.60;37.80;;;;;;5051365;28;20017;-66
2021/07/07 03:20:19;;;;;;;16.27;15.05;;;33.60;37.80;;;;;;5051167;28;20437;-67
2021/07/07 03:22:45;;;;;;;16.25;14.95;;;33.60;38.40;;;;;;5032912;28;20033;-66
2021/07/07 03:25:12;;;;;;;17.10;15.65;;;33.60;37.80;;;;;;5051379;28;20021;-66
2021/07/07 03:27:38;;;;;;;16.60;15.27;;;33.50;37.80;;;;;;5051058;28;20361;-67
2021/07/07 03:30:05;;;;;;;17.45;16.00;;;33.60;37.80;;;;;;5050240;28;20021;-66
2021/07/07 03:32:32;;;;;;;16.85;15.45;;;33.50;37.80;;;;;;5050585;28;20032;-66
2021/07/07 03:34:58;;;;;;;16.10;14.77;;;33.50;37.80;;;;;;5051452;28;20040;-66
2021/07/07 03:37:24;;;;;;;16.70;15.35;;;33.60;37.90;;;;;;5051138;28;20099;-66
2021/07/07 03:39:50;;;;;;;16.92;15.55;;;33.50;37.90;;;;;;5050955;28;20059;-66
2021/07/07 03:42:16;;;;;;;17.60;16.10;;;33.50;37.90;;;;;;5032959;28;20072;-67
2021/07/07 03:44:42;;;;;;;17.00;15.70;;;33.50;37.90;;;;;;5051133;28;20488;-66
2021/07/07 03:47:09;;;;;;;17.10;15.68;;;33.50;37.90;;;;;;5050799;28;20082;-67
2021/07/07 03:49:35;;;;;;;16.40;15.00;;;33.50;38.00;;;;;;5033244;28;20067;-66
2021/07/07 03:52:01;;;;;;;16.40;15.00;;;33.50;38.00;;;;;;5032755;28;20017;-64
2021/07/07 03:54:27;;;;;;;15.98;14.68;;;33.50;38.00;;;;;;5033295;28;20072;-66
2021/07/07 03:56:56;;;;;;;16.60;15.15;;;33.50;38.40;;;;;;5031910;28;20404;-66
2021/07/07 03:59:23;;;;;;;16.50;15.10;;;33.50;38.00;;;;;;5032561;28;20500;-67
2021/07/07 04:01:49;;;;;;;17.35;15.75;;;33.50;38.10;;;;;;5050856;28;20036;-66
2021/07/07 04:04:16;;;;;;;16.35;15.02;;;33.50;38.10;;;;;;5050576;28;20037;-66
2021/07/07 04:06:43;;;;;;;16.92;15.52;;;33.50;38.10;;;;;;5050467;28;20048;-67
2021/07/07 04:09:10;;;;;;;16.58;15.18;;;33.50;38.10;;;;;;5050217;28;20108;-66
2021/07/07 04:11:36;;;;;;;16.55;15.25;;;33.50;38.10;;;;;;5050427;28;20099;-66
2021/07/07 04:14:02;;;;;;;17.48;15.88;;;33.50;38.10;;;;;;5045653;28;20087;-61
2021/07/07 04:16:28;;;;;;;16.38;14.98;;;33.50;38.20;;;;;;5050946;28;20056;-67
2021/07/07 04:18:54;;;;;;;16.88;15.55;;;33.50;38.20;;;;;;5050615;28;20037;-66
2021/07/07 04:21:20;;;;;;;15.68;14.48;;;33.50;38.20;;;;;;5049670;28;20033;-65
2021/07/07 04:23:46;;;;;;;15.63;14.48;;;33.50;38.30;;;;;;5035872;28;20095;-66
2021/07/07 04:26:12;;;;;;;16.65;15.27;;;33.50;38.30;;;;;;5036772;28;20388;-66
2021/07/07 04:28:39;;;;;;;16.13;14.82;;;33.50;38.30;;;;;;5054363;28;20029;-65
2021/07/07 04:31:05;;;;;;;15.70;14.45;;;33.50;38.30;;;;;;5054150;28;20021;-66
2021/07/07 04:33:31;;;;;;;15.57;14.32;;;33.50;38.30;;;;;;5054654;28;20032;-65
2021/07/07 04:35:57;;;;;;;14.95;13.75;;;33.40;38.30;;;;;;5054101;28;20021;-66
2021/07/07 04:38:23;;;;;;;15.63;14.35;;;33.40;38.30;;;;;;5054187;28;20060;-66
2021/07/07 04:40:49;;;;;;;15.63;14.40;;;33.40;38.40;;;;;;5051753;28;20076;-65
2021/07/07 04:43:15;;;;;;;15.35;14.07;;;33.40;38.30;;;;;;5053979;28;20472;-66
2021/07/07 04:45:41;;;;;;;14.90;13.68;;;33.40;38.40;;;;;;5052755;28;20044;-66
2021/07/07 04:48:07;;;;;;;9.15;8.35;;;33.40;38.40;;;;;;5053373;28;20029;-60
2021/07/07 04:50:33;;;;;;;10.77;9.68;;;33.40;37.80;;;;;;5053751;28;20104;-67
2021/07/07 04:52:59;;;;;;;6.18;4.53;;;33.40;37.50;;;;;;5054339;28;20025;-59
2021/07/07 04:55:25;;;;;;;6.53;5.07;;;33.40;37.00;;;;;;5035530;28;20052;-60
2021/07/07 04:57:52;;;;;;;6.35;4.43;;;33.30;36.90;;;;;;5053301;28;20033;-61
2021/07/07 05:00:22;;;;;;;8.88;5.63;;;33.30;36.80;;;;;;5053627;28;20130;-59
2021/07/07 05:02:49;;;;;;;;;;;33.20;36.80;;;;;;5054042;28;20032;-60
2021/07/07 05:05:17;;;;;;;5.43;3.65;;;33.10;37.00;;;;;;5035755;28;19908;-61
2021/07/07 05:07:44;;;;;;;3.50;1.95;;;33.20;36.60;;;;;;5053498;28;20021;-61
2021/07/07 05:10:11;;;;;;;8.55;5.25;;;33.10;36.40;;;;;;5048782;28;20021;-61
2021/07/07 05:12:38;;;;;;;4.45;3.13;;;33.00;36.50;;;;;;5050134;28;20506;-60
2021/07/07 05:15:07;;;;;;;5.65;2.08;;;33.00;36.50;;;;;;5053346;28;20048;-61
2021/07/07 05:17:33;;;;;;;6.45;2.25;;;32.90;36.50;;;;;;5053426;28;20055;-60
2021/07/07 05:20:00;;;;;;;5.10;1.70;;;32.90;36.60;;;;;;5034329;28;20056;-60
2021/07/07 05:22:28;;;;;;;8.25;1.60;;;32.80;36.60;;;;;;5051266;28;20052;-61
2021/07/07 05:24:54;;;;;;;6.10;1.52;;;32.80;36.60;;;;;;5051437;28;20094;-60
2021/07/07 05:27:21;;;;;;;4.22;1.50;;;32.70;36.60;;;;;;5051163;28;20025;-60
2021/07/07 05:29:47;;;;;;;6.40;1.67;;;32.70;36.60;;;;;;5050615;28;20111;-61
2021/07/07 05:32:19;;;;;;;3.05;1.10;;;32.60;36.60;;;;;;5032908;28;20020;-60
2021/07/07 05:34:46;;;;;;;9.70;2.17;;;32.70;36.70;;;;;;5050151;28;20369;-59
2021/07/07 05:37:11;;;;;;;5.45;1.40;;;32.60;36.60;;;;;;5032666;28;20480;-60
2021/07/07 05:39:37;;;;;;;5.72;1.52;;;32.50;36.60;;;;;;5050862;28;20086;-60
2021/07/07 05:42:03;;;;;;;2.70;1.48;;;32.50;36.70;;;;;;5051039;28;20468;-60
2021/07/07 05:44:29;;;;;;;7.88;1.48;;;32.50;36.70;;;;;;5050558;28;20435;-60
2021/07/07 05:46:55;;;;;;;8.25;2.47;;;32.40;36.70;;;;;;5050751;28;20037;-61
2021/07/07 05:49:21;;;;;;;8.75;5.15;;;32.40;36.70;;;;;;5032448;28;20142;-62
2021/07/07 05:51:47;;;;;;;5.78;3.72;;;32.40;36.80;;;;;;5050960;28;20064;-66
2021/07/07 05:54:13;;;;;;;8.02;5.32;;;32.40;36.80;;;;;;5035007;28;20053;-62
2021/07/07 05:56:39;;;;;;;7.07;2.63;;;32.40;36.90;;;;;;5049027;28;20163;-60
2021/07/07 05:59:05;;;;;;;7.28;3.00;;;32.40;36.80;;;;;;5050122;28;20025;-68
2021/07/07 06:01:31;;;;;;;4.53;2.72;;;32.40;36.90;;;;;;5030879;28;20022;-61
2021/07/07 06:03:57;;;;;;;12.30;2.55;;;32.40;36.90;;;;;;5029649;28;20485;-59
2021/07/07 06:06:23;;;;;;;10.02;2.85;;;32.40;36.90;;;;;;5017444;28;20040;-59
2021/07/07 06:08:49;;;;;;;7.95;2.50;;;32.30;37.00;;;;;;5048023;28;20098;-60
2021/07/07 06:11:15;;;;;;;4.65;1.80;;;32.30;36.90;;;;;;5049473;28;20036;-58
2021/07/07 06:13:41;;;;;;;6.13;1.55;;;32.30;36.90;;;;;;5051164;28;20024;-58
2021/07/07 06:16:07;;;;;;;7.15;1.83;;;32.20;36.80;;;;;;5050991;28;20805;-58
2021/07/07 06:18:33;;;;;;;5.10;1.63;;;32.20;36.90;;;;;;5050190;28;20083;-59
2021/07/07 06:20:59;;;;;;;11.05;1.60;;;32.20;36.90;;;;;;5050521;28;20029;-58
2021/07/07 06:23:25;;;;;;;7.68;2.13;;;32.20;37.00;;;;;;5045009;28;20048;-57
2021/07/07 06:25:51;;;;;;;8.02;2.35;;;32.10;37.00;;;;;;5029685;28;20029;-59
2021/07/07 06:28:17;;;;;;;10.98;1.70;;;32.10;37.00;;;;;;5050367;28;20013;-58
2021/07/07 06:30:43;;;;;;;7.68;1.67;;;32.10;37.00;;;;;;5032536;28;20464;-58
2021/07/07 06:33:09;;;;;;;8.68;1.70;;;32.10;37.10;;;;;;5050279;28;20024;-60
2021/07/07 06:35:36;;;;;;;11.50;3.00;;;32.10;37.20;;;;;;5050389;28;20373;-67
2021/07/07 06:38:03;;;;;;;10.65;2.00;;;32.10;37.20;;;;;;5049783;28;20082;-58
2021/07/07 06:40:30;;;;;;;9.25;2.03;;;32.10;37.20;;;;;;5050394;28;20024;-58
2021/07/07 06:42:56;;;;;;;6.82;1.55;;;32.00;37.10;;;;;;5050152;28;20043;-57
2021/07/07 06:45:24;;;;;;;5.90;1.55;;;32.00;37.10;;;;;;5031936;28;20056;-58
2021/07/07 06:47:50;;;;;;;9.05;2.33;;;32.00;37.40;;;;;;5050184;28;20024;-58
2021/07/07 06:50:18;;;;;;;10.63;2.30;;;32.00;37.40;;;;;;5050215;28;20464;-57
2021/07/07 06:52:44;;;;;;;5.22;1.95;;;32.00;37.60;;;;;;5049945;28;20357;-58
2021/07/07 06:55:11;;;;;;;5.97;1.77;;;32.00;37.50;;;;;;5050478;28;20048;-57
2021/07/07 06:57:38;;;;;;;5.40;1.58;;;32.00;37.40;;;;;;5050300;28;20788;-58
2021/07/07 07:00:10;;;;;;;4.85;1.58;;;32.00;37.40;;;;;;5055134;28;20107;-57
2021/07/07 07:02:36;;;;;;;6.38;2.05;;;32.00;37.40;;;;;;5051492;28;20019;-60
2021/07/07 07:05:05;;;;;;;9.95;2.38;;;32.00;37.40;;;;;;5034159;28;20033;-56
2021/07/07 07:07:31;;;;;;;9.65;1.90;;;32.00;37.40;;;;;;5051574;28;20051;-56
2021/07/07 07:09:59;;;;;;;7.30;1.75;;;32.00;37.40;;;;;;5051358;28;20464;-56
2021/07/07 07:12:28;;;;;;;7.65;2.40;;;32.00;37.50;;;;;;5050539;28;20035;-57
2021/07/07 07:14:56;;;;;;;8.43;1.90;;;31.90;37.40;;;;;;5050788;28;20064;-57
2021/07/07 07:17:24;;;;;;;11.95;2.33;;;32.00;37.40;;;;;;5033062;28;20074;-57
2021/07/07 07:19:50;;;;;;;8.40;2.17;;;31.90;37.30;;;;;;5050956;28;20033;-56
2021/07/07 07:22:18;;;;;;;9.05;2.28;;;31.90;37.50;;;;;;5050698;28;20485;-57
2021/07/07 07:24:45;;;;;;;7.40;2.13;;;31.90;37.50;;;;;;5048282;28;20017;-58
2021/07/07 07:27:12;;;;;;;14.68;2.72;;;31.90;37.40;;;;;;5051368;28;20071;-56
2021/07/07 07:29:40;;;;;;;7.47;2.30;;;31.90;37.50;;;;;;5050796;28;20025;-61
2021/07/07 07:32:07;;;;;;;5.78;1.85;;;31.90;37.60;;;;;;5051523;28;20021;-56
2021/07/07 07:34:33;;;;;;;7.90;2.53;;;31.90;37.50;;;;;;5051273;28;20128;-56
2021/07/07 07:37:02;;;;;;;10.10;2.10;;;31.90;37.60;;;;;;5050561;28;20543;-56
2021/07/07 07:39:39;;;;;;;8.43;2.20;;;32.00;37.60;;;;;;5050144;28;20448;-57
2021/07/07 07:42:05;;;;;;;4.93;2.03;;;31.90;37.40;;;;;;5050832;28;20052;-57
2021/07/07 07:44:31;;;;;;;6.05;2.03;;;31.90;37.70;;;;;;5051140;28;20017;-56
2021/07/07 07:46:58;;;;;;;5.20;1.70;;;31.90;37.40;;;;;;5038225;28;20082;-57
2021/07/07 07:49:25;;;;;;;6.50;1.83;;;31.90;37.80;;;;;;5031481;28;20034;-56
2021/07/07 07:51:51;;;;;;;5.07;1.70;;;31.90;37.70;;;;;;5047929;28;20111;-57
2021/07/07 07:54:18;;;;;;;7.18;1.85;;;32.00;38.00;;;;;;5033163;28;20044;-57
2021/07/07 07:56:44;;;;;;;7.05;1.90;;;32.00;38.20;;;;;;5032940;28;20032;-57
2021/07/07 07:59:10;;;;;;;10.32;1.73;;;31.90;37.80;;;;;;5050643;28;20021;-57
2021/07/07 08:01:36;;;;;;;24.35;2.60;;;32.00;37.50;;;;;;5051361;28;20095;-57
2021/07/07 08:04:03;;;;;;;14.60;1.75;;;32.10;37.40;;;;;;5050666;28;20028;-58
2021/07/07 08:06:30;;;;;;;3.67;1.00;;;32.10;37.40;;;;;;5051109;28;20033;-56
2021/07/07 08:08:58;;;;;;;12.98;1.65;;;32.20;37.30;;;;;;5050434;28;20013;-57
2021/07/07 08:11:24;;;;;;;4.32;1.48;;;32.30;37.20;;;;;;5051086;28;20037;-57
2021/07/07 08:13:52;;;;;;;7.32;1.95;;;32.30;37.10;;;;;;5050530;28;20037;-57
2021/07/07 08:16:19;;;;;;;3.20;1.60;;;32.40;37.00;;;;;;5050415;28;20380;-56
2021/07/07 08:18:45;;;;;;;4.05;1.63;;;32.40;36.80;;;;;;5032190;28;20033;-55
2021/07/07 08:21:11;;;;;;;3.30;2.60;;;32.50;36.80;;;;;;5032413;28;20033;-57
2021/07/07 08:23:37;;;;;;;4.10;1.70;;;32.50;36.80;;;;;;5033069;28;20021;-56
2021/07/07 08:26:03;;;;;;;2.00;1.63;;;32.60;37.20;;;;;;5050541;28;20052;-57
2021/07/07 08:28:29;;;;;;;3.78;1.27;;;32.60;36.40;;;;;;5050137;28;20025;-55
2021/07/07 08:30:55;;;;;;;5.68;2.10;;;32.60;36.40;;;;;;5050362;28;20033;-56
2021/07/07 08:33:21;;;;;;;6.63;1.20;;;32.70;36.50;;;;;;5050331;28;20031;-57
2021/07/07 08:35:47;;;;;;;4.65;1.25;;;32.70;36.50;;;;;;5050327;28;20041;-56
2021/07/07 08:38:13;;;;;;;7.07;1.33;;;32.80;36.50;;;;;;5051400;28;20444;-58
2021/07/07 08:40:39;;;;;;;4.05;1.15;;;32.90;36.30;;;;;;5048395;28;20044;-63
2021/07/07 08:43:06;;;;;;;3.47;1.00;;;32.90;36.30;;;;;;5030559;28;20048;-64
2021/07/07 08:45:33;;;;;;;4.75;1.27;;;33.00;36.40;;;;;;5049112;28;20029;-65
2021/07/07 08:47:59;;;;;;;4.30;1.10;;;33.00;36.50;;;;;;5050329;28;20048;-65
2021/07/07 08:50:36;;;;;;;2.15;1.35;;;33.00;36.30;;;;;;5050280;28;20462;-67
2021/07/07 08:53:06;;;;;;;4.20;0.98;;;33.00;36.00;;;;;;5050318;28;20108;-65
2021/07/07 08:55:33;;;;;;;2.15;0.95;;;33.10;36.00;;;;;;5050139;28;20044;-65
2021/07/07 08:58:00;;;;;;;3.00;2.25;;;33.10;35.90;;;;;;5049058;28;20040;-65
2021/07/07 09:00:37;;;;;;;2.58;1.20;;;33.20;35.80;;;;;;5049740;28;20479;-65
2021/07/07 09:03:03;;;;;;;3.10;1.20;;;33.10;35.40;;;;;;5049899;28;20071;-66
2021/07/07 09:05:30;;;;;;;2.90;0.85;;;33.20;35.60;;;;;;5050219;28;20035;-65
2021/07/07 09:08:04;;;;;;;2.55;1.27;;;33.30;35.60;;;;;;5049784;28;20127;-65
2021/07/07 09:10:32;;;;;;;2.30;1.35;;;33.20;35.30;;;;;;5052394;28;20456;-65
2021/07/07 09:13:13;;;;;;;3.67;1.38;;;33.30;35.40;;;;;;5053118;28;20025;-65
2021/07/07 09:15:39;;;;;;;2.30;1.15;;;33.30;35.40;;;;;;5053730;28;20041;-65
2021/07/07 09:18:05;;;;;;;1.35;0.90;;;33.30;35.30;;;;;;5034349;28;20101;-64
2021/07/07 09:20:43;;;;;;;3.90;1.00;;;33.30;35.20;;;;;;5053149;28;20357;-63
2021/07/07 09:23:23;;;;;;;4.28;1.20;;;33.30;35.10;;;;;;5053200;28;20036;-65
2021/07/07 09:26:03;;;;;;;2.70;1.13;;;33.30;35.00;;;;;;5053223;28;20096;-64
2021/07/07 09:28:39;;;;;;;;;;;33.40;35.00;;;;;;5053389;28;20112;-65
2021/07/07 09:31:26;;;;;;;1.80;1.10;;;33.40;35.50;;;;;;5053016;28;19908;-65
2021/07/07 09:33:52;;;;;;;1.23;1.02;;;33.50;34.90;;;;;;5052576;28;20044;-64
2021/07/07 09:36:25;;;;;;;1.52;0.90;;;33.60;34.90;;;;;;5053003;28;20032;-65
2021/07/07 09:38:53;;;;;;;1.38;1.10;;;33.50;34.70;;;;;;5051666;28;20025;-64
2021/07/07 09:41:20;;;;;;;1.20;0.95;;;33.60;34.80;;;;;;5052378;28;20041;-65
2021/07/07 09:43:48;;;;;;;4.03;1.85;;;33.60;34.70;;;;;;5052576;28;20024;-64
2021/07/07 09:46:15;;;;;;;1.85;1.05;;;33.60;34.70;;;;;;5052831;28;20025;-60
2021/07/07 09:48:42;;;;;;;1.88;1.10;;;33.60;34.70;;;;;;5053336;28;20076;-66
2021/07/07 09:51:07;;;;;;;3.08;1.10;;;33.60;34.60;;;;;;5052160;28;20028;-65
2021/07/07 09:53:34;;;;;;;2.05;0.75;;;33.60;34.50;;;;;;5052673;28;20191;-65
2021/07/07 09:56:02;;;;;;;2.33;1.15;;;33.60;34.50;;;;;;5057778;28;20155;-65
2021/07/07 09:58:28;;;;;;;1.98;0.93;;;33.70;34.40;;;;;;5043168;28;20029;-62
2021/07/07 10:00:55;;;;;;;1.77;0.95;;;33.60;34.50;;;;;;5051907;28;20427;-62
2021/07/07 10:03:21;;;;;;;1.95;0.77;;;33.70;34.50;;;;;;5052654;28;20033;-62
2021/07/07 10:05:47;;;;;;;2.42;1.08;;;33.70;34.60;;;;;;5061312;28;20017;-61
2021/07/07 10:08:14;;;;;;;1.63;1.05;;;33.70;34.60;;;;;;5052184;28;20042;-62
2021/07/07 10:10:42;;;;;;;2.08;1.52;;;33.70;34.60;;;;;;5051903;28;20150;-62
2021/07/07 10:13:10;;;;;;;3.05;2.22;;;33.80;34.60;;;;;;5032937;28;20191;-62
2021/07/07 10:15:37;;;;;;;4.30;2.88;;;33.80;34.50;;;;;;5051591;28;21012;-63
2021/07/07 10:18:05;;;;;;;5.45;4.90;;;33.90;34.40;;;;;;5050603;28;20029;-62
2021/07/07 10:20:31;;;;;;;11.27;10.23;;;33.90;34.30;;;;;;5054877;28;20082;-62
2021/07/07 10:22:58;;;;;;;17.65;16.15;;;33.90;34.30;;;;;;5071922;28;20028;-62
2021/07/07 10:25:27;;;;;;;24.65;22.38;;;34.00;34.40;;;;;;5071782;28;20024;-63
2021/07/07 10:28:01;;;;;;;28.23;25.70;;;34.00;34.40;;;;;;5053792;28;20463;-62
2021/07/07 10:30:51;;;;;;;31.33;28.58;;;34.00;34.40;;;;;;5031949;28;20048;-62
2021/07/07 10:33:19;;;;;;;31.30;28.50;;;34.10;34.60;;;;;;5031892;28;20109;-62
2021/07/07 10:35:45;;;;;;;32.90;30.10;;;34.10;34.60;;;;;;5014166;28;20041;-62
2021/07/07 10:38:12;;;;;;;33.67;30.73;;;34.10;34.60;;;;;;5047317;28;20099;-61
2021/07/07 10:40:41;;;;;;;33.25;30.38;;;34.20;34.70;;;;;;5051567;28;20158;-61
2021/07/07 10:43:07;;;;;;;34.22;31.27;;;34.20;34.80;;;;;;5051608;28;20035;-63
2021/07/07 10:45:43;;;;;;;35.95;32.95;;;34.20;34.80;;;;;;5068161;28;20029;-62
2021/07/07 10:48:31;;;;;;;39.25;35.70;;;34.20;34.80;;;;;;5071161;28;20021;-61
2021/07/07 10:51:00;;;;;;;38.88;35.50;;;34.30;34.90;;;;;;5070261;28;20028;-62
2021/07/07 10:53:30;;;;;;;39.45;36.03;;;34.40;34.90;;;;;;5069440;28;20029;-62
2021/07/07 10:55:58;;;;;;;41.75;37.83;;;34.40;34.80;;;;;;5069245;28;20052;-63
2021/07/07 10:58:30;;;;;;;41.10;37.30;;;34.40;34.90;;;;;;5050214;28;20033;-63
2021/07/07 11:00:57;;;;;;;40.72;37.22;;;34.40;34.90;;;;;;5049378;28;20182;-61
2021/07/07 11:03:33;;;;;;;41.47;37.78;;;34.50;35.00;;;;;;5049248;28;20040;-62
2021/07/07 11:06:20;;;;;;;39.90;36.40;;;34.60;35.00;;;;;;5049104;28;20017;-62
2021/07/07 11:08:48;;;;;;;41.35;37.70;;;34.60;35.00;;;;;;5049437;28;20499;-63
2021/07/07 11:11:23;;;;;;;42.03;38.33;;;34.60;34.90;;;;;;5031720;28;20179;-62
2021/07/07 11:13:49;;;;;;;42.40;38.67;;;34.70;34.90;;;;;;5048714;28;20463;-60
2021/07/07 11:16:20;;;;;;;41.20;37.67;;;34.70;34.90;;;;;;5049813;28;20025;-61
2021/07/07 11:18:47;;;;;;;43.17;39.53;;;34.70;34.90;;;;;;5051180;28;20420;-62
2021/07/07 11:21:13;;;;;;;43.28;39.58;;;34.80;34.90;;;;;;5050834;28;20124;-62
2021/07/07 11:23:41;;;;;;;41.10;37.70;;;34.80;34.90;;;;;;5051062;28;20033;-63
2021/07/07 11:26:10;;;;;;;43.72;39.92;;;34.80;34.80;;;;;;5048061;28;20444;-64
2021/07/07 11:28:37;;;;;;;44.53;40.50;;;34.90;34.80;;;;;;5047285;28;20029;-63
2021/07/07 11:31:04;;;;;;;41.30;37.75;;;34.90;34.80;;;;;;5044410;28;20480;-62
2021/07/07 11:33:30;;;;;;;45.88;41.97;;;35.00;34.80;;;;;;5048410;28;20099;-62
2021/07/07 11:35:56;;;;;;;47.38;43.05;;;35.00;34.80;;;;;;5048943;28;20041;-61
2021/07/07 11:38:28;;;;;;;50.65;45.45;;;35.00;34.70;;;;;;5049567;28;20061;-62
2021/07/07 11:40:56;;;;;;;46.53;42.47;;;35.00;34.60;;;;;;5035059;28;20046;-61
2021/07/07 11:43:25;;;;;;;48.17;43.58;;;35.10;34.70;;;;;;5031146;28;20092;-61
2021/07/07 11:45:59;;;;;;;46.93;42.50;;;35.10;34.60;;;;;;5030596;28;20030;-61
2021/07/07 11:48:33;;;;;;;46.55;42.10;;;35.20;34.60;;;;;;5030733;28;20258;-62
2021/07/07 11:51:01;;;;;;;49.17;44.15;;;35.20;35.20;;;;;;5030835;28;20030;-62
2021/07/07 11:53:40;;;;;;;46.97;42.47;;;35.20;34.60;;;;;;5031064;28;20112;-63
2021/07/07 11:56:09;;;;;;;47.72;43.10;;;35.20;34.50;;;;;;5014793;28;20469;-63
2021/07/07 11:58:44;;;;;;;53.17;47.88;;;35.30;34.50;;;;;;5033056;28;20048;-64
2021/07/07 12:01:15;;;;;;;52.05;46.50;;;35.30;34.40;;;;;;5050440;28;21054;-65
2021/07/07 12:03:41;;;;;;;52.60;47.60;;;35.30;34.30;;;;;;5050962;28;20037;-64
2021/07/07 12:06:09;;;;;;;56.78;50.80;;;35.40;34.40;;;;;;5050663;28;20029;-63
2021/07/07 12:08:41;;;;;;;54.83;49.08;;;35.40;34.40;;;;;;5050469;28;20076;-64
2021/07/07 12:11:18;;;;;;;56.70;50.80;;;35.50;34.50;;;;;;5032482;28;20494;-63
2021/07/07 12:13:47;;;;;;;53.58;48.42;;;35.50;34.60;;;;;;5050422;28;20476;-62
2021/07/07 12:16:17;;;;;;;57.60;51.60;;;35.50;34.50;;;;;;5049754;28;20025;-63
2021/07/07 12:18:45;;;;;;;58.50;52.42;;;35.60;34.50;;;;;;5050506;28;20454;-63
2021/07/07 12:21:23;;;;;;;59.42;53.35;;;35.60;34.50;;;;;;5050070;28;20039;-62
2021/07/07 12:23:56;;;;;;;59.90;53.50;;;35.60;34.40;;;;;;5050952;28;20033;-63
2021/07/07 12:26:24;;;;;;;62.58;56.22;;;35.70;34.40;;;;;;5050460;28;20115;-60
2021/07/07 12:28:53;;;;;;;60.50;54.10;;;35.70;34.40;;;;;;5050925;28;20480;-62
2021/07/07 12:31:19;;;;;;;62.17;55.85;;;35.70;34.50;;;;;;5050554;28;20025;-63
2021/07/07 12:33:47;;;;;;;65.10;58.17;;;35.70;34.50;;;;;;5050164;28;20033;-63
2021/07/07 12:36:13;;;;;;;72.13;64.22;;;35.70;34.40;;;;;;5049841;28;20029;-63
2021/07/07 12:38:47;;;;;;;70.00;62.60;;;35.80;34.40;;;;;;5050506;28;20025;-63
2021/07/07 12:41:14;;;;;;;72.45;64.72;;;35.80;35.00;;;;;;5032230;28;20279;-63